createdAt,value
2023-05-05T00:00:44.659Z,71.40
2023-05-05T00:05:50.212Z,71.30
2023-05-05T00:10:56.576Z,73.30
2023-05-05T00:16:01.466Z,72.20
2023-05-05T00:21:06.121Z,72.20
2023-05-05T00:26:09.846Z,72.70
2023-05-05T00:31:17.361Z,73.10
2023-05-05T00:36:20.960Z,73.60
2023-05-05T00:41:24.648Z,73.50
2023-05-05T00:46:32.596Z,73.90
2023-05-05T00:51:36.547Z,74.00
2023-05-05T00:56:40.592Z,74.40
2023-05-05T01:01:47.041Z,74.80
2023-05-05T01:07:08.253Z,74.90
2023-05-05T01:12:20.982Z,75.10
2023-05-05T01:17:38.822Z,75.30
2023-05-05T01:22:48.221Z,75.50
2023-05-05T01:28:02.497Z,76.10
2023-05-05T01:33:10.677Z,76.40
2023-05-05T01:38:18.394Z,76.20
2023-05-05T01:43:23.553Z,77.40
2023-05-05T01:48:29.915Z,76.80
2023-05-05T01:53:34.865Z,77.70
2023-05-05T01:58:40.071Z,78.60
2023-05-05T02:03:47.499Z,78.70
2023-05-05T02:08:53.338Z,79.00
2023-05-05T02:13:57.683Z,79.70
2023-05-05T02:19:05.620Z,80.00
2023-05-05T02:24:09.499Z,80.40
2023-05-05T02:29:19.103Z,80.70
2023-05-05T02:34:28.049Z,81.40
2023-05-05T02:39:37.849Z,81.90
2023-05-05T02:44:47.556Z,82.20
2023-05-05T02:49:53.407Z,82.80
2023-05-05T02:54:56.896Z,83.00
2023-05-05T03:00:09.676Z,83.20
2023-05-05T03:05:22.362Z,83.10
2023-05-05T03:10:31.181Z,83.20
2023-05-05T03:15:42.164Z,83.40
2023-05-05T03:20:47.558Z,83.40
2023-05-05T03:25:53.590Z,83.80
2023-05-05T03:31:13.544Z,83.90
2023-05-05T03:36:18.395Z,84.10
2023-05-05T03:41:23.747Z,84.20
2023-05-05T03:46:28.617Z,84.70
2023-05-05T03:51:33.948Z,84.90
2023-05-05T03:56:37.880Z,85.10
2023-05-05T04:01:41.575Z,85.20
2023-05-05T04:06:46.823Z,85.50
2023-05-05T04:11:51.188Z,85.60
2023-05-05T04:16:56.007Z,85.70
2023-05-05T04:22:02.610Z,85.70
2023-05-05T04:27:07.193Z,85.70
2023-05-05T04:32:11.099Z,86.40
2023-05-05T04:37:16.486Z,86.90
2023-05-05T04:42:20.590Z,85.90
2023-05-05T04:47:24.468Z,85.90
2023-05-05T04:52:29.415Z,83.80
2023-05-05T04:57:33.389Z,79.80
2023-05-05T05:02:37.938Z,78.40
2023-05-05T05:07:42.655Z,79.10
2023-05-05T05:12:45.857Z,79.90
2023-05-05T05:17:49.127Z,80.50
2023-05-05T05:22:53.725Z,80.20
2023-05-05T05:28:08.836Z,80.40
2023-05-05T05:33:16.118Z,80.60
2023-05-05T05:38:22.040Z,80.60
2023-05-05T05:43:28.262Z,80.40
2023-05-05T05:48:31.602Z,80.10
2023-05-05T05:53:37.063Z,79.80
2023-05-05T05:58:40.641Z,79.60
2023-05-05T06:03:44.677Z,79.30
2023-05-05T06:08:49.879Z,79.00
2023-05-05T06:13:53.499Z,78.40
2023-05-05T06:18:57.361Z,77.90
2023-05-05T06:24:02.655Z,77.60
2023-05-05T06:29:07.106Z,77.20
2023-05-05T06:34:10.897Z,76.60
2023-05-05T06:39:16.247Z,76.10
2023-05-05T06:44:19.807Z,75.50
2023-05-05T06:49:23.375Z,74.80
2023-05-05T06:54:28.309Z,74.20
2023-05-05T06:59:31.519Z,73.60
2023-05-05T07:04:34.793Z,73.00
2023-05-05T07:09:41.296Z,72.40
2023-05-05T07:14:44.904Z,71.70
2023-05-05T07:19:48.496Z,71.20
2023-05-05T07:24:53.939Z,70.70
2023-05-05T07:29:57.657Z,70.10
2023-05-05T07:35:01.357Z,69.60
2023-05-05T07:40:07.175Z,68.60
2023-05-05T07:45:11.091Z,67.70
2023-05-05T07:50:14.349Z,66.50
2023-05-05T07:55:19.563Z,65.80
2023-05-05T08:00:23.021Z,64.70
2023-05-05T08:05:26.725Z,64.20
2023-05-05T08:10:31.974Z,63.80
2023-05-05T08:15:35.358Z,62.90
2023-05-05T08:20:39.132Z,62.00
2023-05-05T08:25:44.750Z,61.60
2023-05-05T08:30:49.779Z,60.60
2023-05-05T08:35:53.720Z,59.80
2023-05-05T08:40:58.795Z,59.10
2023-05-05T08:46:02.249Z,58.40
2023-05-05T08:51:08.269Z,57.60
2023-05-05T08:56:16.039Z,56.90
2023-05-05T09:01:20.219Z,56.00
2023-05-05T09:06:27.105Z,55.60
2023-05-05T09:11:32.621Z,54.70
2023-05-05T09:16:36.163Z,54.20
2023-05-05T09:21:48.311Z,53.10
2023-05-05T09:26:57.385Z,51.90
2023-05-05T09:32:09.216Z,51.30
2023-05-05T09:37:12.950Z,50.40
2023-05-05T09:42:20.948Z,49.80
2023-05-05T09:47:35.979Z,49.30
2023-05-05T09:52:39.750Z,48.70
2023-05-05T09:57:45.019Z,47.80
2023-05-05T10:02:48.947Z,47.30
2023-05-05T10:07:52.549Z,46.40
2023-05-05T10:12:58.981Z,45.60
2023-05-05T10:18:07.540Z,44.90
2023-05-05T10:23:19.893Z,44.50
2023-05-05T10:28:33.873Z,44.40
2023-05-05T10:33:46.633Z,43.80
2023-05-05T10:38:55.364Z,43.60
2023-05-05T10:44:03.638Z,43.10
2023-05-05T10:49:17.142Z,42.90
2023-05-05T10:54:29.423Z,43.00
2023-05-05T10:59:44.466Z,42.80
2023-05-05T11:05:12.545Z,42.70
2023-05-05T11:10:17.522Z,42.70
2023-05-05T11:15:41.046Z,42.40
2023-05-05T11:21:04.340Z,42.20
2023-05-05T11:26:08.004Z,42.40
2023-05-05T11:31:22.050Z,42.60
2023-05-05T11:36:41.904Z,42.50
2023-05-05T11:42:10.174Z,42.40
2023-05-05T11:47:37.150Z,42.40
2023-05-05T11:52:40.752Z,41.90
2023-05-05T11:57:44.100Z,41.90
2023-05-05T12:02:57.179Z,40.90
2023-05-05T12:08:01.109Z,40.80
2023-05-05T12:13:04.963Z,40.30
2023-05-05T12:18:19.702Z,40.60
2023-05-05T12:23:23.625Z,40.70
2023-05-05T12:28:27.310Z,40.80
2023-05-05T12:33:39.888Z,40.70
2023-05-05T12:38:43.480Z,41.50
2023-05-05T12:43:47.851Z,41.10
2023-05-05T12:49:05.694Z,41.20
2023-05-05T12:54:10.805Z,41.30
2023-05-05T12:59:30.294Z,41.10
2023-05-05T13:04:35.661Z,41.00
2023-05-05T13:09:39.337Z,40.70
2023-05-05T13:14:43.794Z,40.90
2023-05-05T13:19:48.709Z,41.10
2023-05-05T13:24:53.086Z,41.30
2023-05-05T13:29:56.694Z,41.60
2023-05-05T13:35:01.717Z,41.70
2023-05-05T13:40:05.711Z,41.70
2023-05-05T13:45:10.533Z,41.50
2023-05-05T13:50:15.650Z,41.40
2023-05-05T13:55:19.609Z,41.50
2023-05-05T14:00:23.489Z,41.40
2023-05-05T14:05:28.731Z,41.50
2023-05-05T14:10:32.437Z,41.30
2023-05-05T14:15:36.132Z,41.20
2023-05-05T14:20:41.699Z,41.00
2023-05-05T14:25:45.638Z,41.00
2023-05-05T14:30:49.414Z,41.00
2023-05-05T14:35:54.417Z,40.90
2023-05-05T14:40:58.148Z,41.20
2023-05-05T14:46:06.935Z,41.30
2023-05-05T14:51:11.706Z,41.50
2023-05-05T14:56:15.121Z,41.50
2023-05-05T15:01:18.809Z,41.60
2023-05-05T15:06:23.935Z,41.70
2023-05-05T15:11:27.452Z,41.70
2023-05-05T15:16:33.782Z,41.90
2023-05-05T15:21:40.146Z,42.00
2023-05-05T15:26:43.834Z,42.10
2023-05-05T15:31:47.576Z,42.30
2023-05-05T15:36:52.825Z,42.50
2023-05-05T15:41:56.570Z,42.70
2023-05-05T15:47:00.288Z,43.00
2023-05-05T15:52:05.558Z,43.40
2023-05-05T15:57:09.502Z,43.80
2023-05-05T16:02:12.870Z,44.00
2023-05-05T16:07:18.686Z,44.10
2023-05-05T16:12:22.748Z,44.20
2023-05-05T16:17:26.469Z,44.40
2023-05-05T16:22:31.481Z,44.50
2023-05-05T16:27:35.071Z,44.70
2023-05-05T16:32:38.848Z,45.00
2023-05-05T16:37:43.564Z,45.40
2023-05-05T16:42:47.315Z,45.80
2023-05-05T16:47:51.734Z,46.00
2023-05-05T16:53:11.984Z,46.30
2023-05-05T16:58:16.803Z,46.70
2023-05-05T17:03:21.592Z,47.00
2023-05-05T17:08:25.332Z,47.30
2023-05-05T17:13:30.371Z,47.80
2023-05-05T17:18:33.831Z,48.10
2023-05-05T17:23:37.974Z,48.50
2023-05-05T17:28:43.051Z,48.90
2023-05-05T17:33:46.443Z,49.30
2023-05-05T17:38:50.044Z,49.80
2023-05-05T17:43:54.996Z,50.20
2023-05-05T17:48:58.374Z,50.60
2023-05-05T17:54:02.043Z,51.00
2023-05-05T17:59:06.980Z,51.30
2023-05-05T18:04:10.654Z,51.60
2023-05-05T18:09:14.474Z,52.00
2023-05-05T18:14:20.263Z,52.30
2023-05-05T18:19:24.372Z,52.70
2023-05-05T18:24:28.385Z,53.00
2023-05-05T18:29:35.091Z,53.50
2023-05-05T18:34:38.701Z,55.40
2023-05-05T18:39:44.048Z,57.50
2023-05-05T18:44:49.093Z,59.60
2023-05-05T18:49:52.731Z,61.10
2023-05-05T18:54:56.346Z,62.40
2023-05-05T19:00:01.551Z,63.40
2023-05-05T19:05:05.393Z,64.60
2023-05-05T19:10:10.497Z,65.40
2023-05-05T19:15:15.381Z,66.20
2023-05-05T19:20:19.164Z,67.20
2023-05-05T19:25:22.740Z,68.00
2023-05-05T19:30:27.960Z,68.50
2023-05-05T19:35:31.689Z,69.00
2023-05-05T19:40:35.330Z,70.10
2023-05-05T19:45:40.309Z,71.40
2023-05-05T19:50:44.051Z,73.00
2023-05-05T19:55:47.723Z,75.30
2023-05-05T20:00:54.084Z,76.60
2023-05-05T20:05:58.021Z,78.70
2023-05-05T20:11:01.633Z,80.40
2023-05-05T20:16:07.685Z,82.00
2023-05-05T20:21:11.059Z,88.40
2023-05-05T20:26:15.283Z,92.30
2023-05-05T20:31:20.390Z,99.90
2023-05-05T20:36:26.752Z,99.90
2023-05-05T20:41:30.625Z,99.90
2023-05-05T20:46:36.390Z,99.90
2023-05-05T20:51:40.113Z,99.90
2023-05-05T20:56:43.689Z,99.90
2023-05-05T21:01:48.610Z,99.90
2023-05-05T21:06:52.300Z,99.90
2023-05-05T21:11:55.833Z,99.90
2023-05-05T21:17:00.915Z,99.90
2023-05-05T21:22:04.955Z,99.90
2023-05-05T21:27:08.800Z,99.90
2023-05-05T21:32:14.504Z,99.90
2023-05-05T21:37:18.071Z,99.90
2023-05-05T21:42:21.747Z,99.90
2023-05-05T21:47:26.711Z,99.90
2023-05-05T21:52:30.452Z,99.90
2023-05-05T21:57:34.041Z,99.90
2023-05-05T22:02:39.310Z,99.90
2023-05-05T22:07:42.995Z,99.90
2023-05-05T22:12:46.617Z,99.90
2023-05-05T22:17:51.754Z,99.90
2023-05-05T22:22:55.616Z,99.90
2023-05-05T22:27:59.257Z,99.90
2023-05-05T22:33:04.326Z,99.90
2023-05-05T22:38:08.172Z,99.90
2023-05-05T22:43:11.366Z,99.90
2023-05-05T22:48:16.476Z,99.90
2023-05-05T22:53:19.667Z,99.90
2023-05-05T22:58:23.328Z,99.90
2023-05-05T23:03:28.362Z,99.90
2023-05-05T23:08:31.972Z,99.90
2023-05-05T23:13:35.696Z,99.90
2023-05-05T23:18:40.672Z,99.90
2023-05-05T23:23:44.380Z,99.90
2023-05-05T23:28:47.928Z,99.90
2023-05-05T23:33:52.958Z,99.90
2023-05-05T23:38:56.587Z,99.90
2023-05-05T23:44:00.254Z,99.90
2023-05-05T23:49:05.229Z,99.90
2023-05-05T23:54:08.958Z,99.90
2023-05-05T23:59:12.530Z,99.90
